Aviation Digital Data Service (ADDS)

Output produced by METARs form (1515 UTC 20 March 2019)
found at http://www.aviationweather.gov/metar/data/
 
Forecast for: EDDN (NUERNBERG , DE)
Text: TAF EDDN 201100Z 2012/2112 VRB03KT CAVOK
Forecast period: 1200 UTC 20 March 2019 to 1200 UTC 21 March 2019
Forecast type: FROM: standard forecast or significant change
Winds: variable direction winds at 3 MPH (3 knots; 1.5 m/s)
Visibility: 6 or more miles 10+ km)
Ceiling: unknown
Clouds: missing
Weather: NSW  (no significant weather)